Time;durP1;ratioP1;P1;durP2;ratioP2;P2;SDS_P1;SDS_P2;PMS_P1;PMS_P2;Temp;Humidity;BMP_temperature;BMP_pressure;BME280_temperature;BME280_humidity;BME280_pressure;Samples;Min_cycle;Max_cycle;Signal;HPM_P1;HPM_P2
2022/08/22 00:01:38;;;;;;;;;;;18.50;60.70;;;19.26;89.79;99125.41;5024831;27;119203;-69
2022/08/22 00:04:28;;;;;;;26.27;5.63;;;18.40;65.30;;;19.14;90.55;99125.69;5024774;27;129309;-70
2022/08/22 00:07:06;;;;;;;13.80;5.00;;;18.40;67.40;;;19.12;90.94;99130.75;5036311;27;130522;-70
2022/08/22 00:09:46;;;;;;;15.07;4.80;;;18.30;72.20;;;19.11;91.01;99129.19;5029471;27;121892;-69
2022/08/22 00:12:23;;;;;;;23.30;6.13;;;18.30;77.30;;;19.10;91.02;99127.59;5039557;27;122058;-69
2022/08/22 00:14:59;;;;;;;17.85;5.68;;;18.20;85.10;;;19.03;91.60;99123.59;5021110;27;129866;-71
2022/08/22 00:17:44;;;;;;;18.55;5.47;;;18.20;89.30;;;18.95;92.15;99130.22;5038556;27;130847;-70
2022/08/22 00:20:24;;;;;;;16.73;5.13;;;18.10;93.10;;;18.91;92.45;99126.63;5039421;27;119693;-70
2022/08/22 00:23:03;;;;;;;16.25;5.35;;;18.10;93.10;;;18.86;92.83;99124.22;5007530;27;119205;-73
2022/08/22 00:25:47;;;;;;;20.17;5.78;;;18.10;93.10;;;18.76;93.54;99122.09;5038877;27;130988;-70
2022/08/22 00:28:22;;;;;;;16.85;4.95;;;18.00;93.10;;;18.70;94.15;99116.19;5023331;27;129117;-70
2022/08/22 00:30:58;;;;;;;21.17;5.20;;;18.00;96.60;;;18.61;94.76;99112.94;5039454;27;119421;-70
2022/08/22 00:33:36;;;;;;;16.02;4.65;;;18.00;98.10;;;18.57;95.30;99129.34;5024598;27;119348;-69
2022/08/22 00:36:24;;;;;;;22.17;5.35;;;17.90;99.60;;;18.53;95.48;99128.53;5037090;27;130365;-70
2022/08/22 00:38:59;;;;;;;16.20;4.85;;;17.90;99.10;;;18.56;95.26;99118.72;5033455;27;129946;-72
2022/08/22 00:42:10;;;;;;;16.63;5.05;;;17.90;99.80;;;18.57;95.26;99129.34;5027739;27;118746;-71
2022/08/22 00:45:38;;;;;;;16.80;5.38;;;17.90;99.90;;;18.58;95.13;99136.44;5059611;27;119443;-71
2022/08/22 00:48:27;;;;;;;17.23;5.57;;;17.90;99.90;;;18.54;95.15;99138.34;5059017;27;129985;-69
2022/08/22 00:51:39;;;;;;;16.15;5.22;;;17.90;99.90;;;18.48;95.44;99131.59;5065332;27;129653;-71
2022/08/22 00:54:19;;;;;;;19.38;5.25;;;17.90;99.90;;;18.48;95.59;99137.09;5063254;27;119881;-70
2022/08/22 00:57:29;;;;;;;19.63;5.07;;;17.90;99.90;;;18.43;95.95;99135.50;5047742;27;118177;-71
2022/08/22 01:00:11;;;;;;;18.98;4.88;;;17.90;99.90;;;18.43;96.28;99140.16;5062204;27;130095;-72
2022/08/22 01:03:26;;;;;;;16.08;5.57;;;17.80;99.90;;;18.40;96.29;99129.94;5062734;27;129700;-70
2022/08/22 01:06:13;;;;;;;16.38;5.18;;;17.80;99.90;;;18.36;96.63;99129.09;5032090;27;120854;-72
2022/08/22 01:09:04;;;;;;;20.70;5.18;;;17.80;99.90;;;18.36;96.57;99131.84;5034772;27;122268;-71
2022/08/22 01:12:19;;;;;;;17.42;5.63;;;17.80;99.90;;;18.39;96.34;99129.16;5039917;27;130009;-71
2022/08/22 01:14:54;;;;;;;17.17;4.93;;;17.70;99.90;;;18.40;96.18;99130.75;5031406;27;129350;-70
2022/08/22 01:18:04;;;;;;;24.27;4.75;;;17.70;99.90;;;18.36;96.60;99124.41;5027346;27;118838;-71
2022/08/22 01:21:24;;;;;;;13.82;4.43;;;17.60;99.90;;;18.32;96.50;99118.88;5037710;27;119545;-71
2022/08/22 01:25:16;;;;;;;13.70;4.63;;;17.60;99.90;;;18.26;96.99;99131.34;5041562;27;129865;-69
2022/08/22 01:28:27;;;;;;;12.88;4.82;;;17.50;99.90;;;18.16;97.85;99125.72;5011917;27;129627;-70
2022/08/22 01:32:04;;;;;;;14.63;4.63;;;17.40;99.90;;;18.11;98.51;99126.81;4935041;28;119480;-71
2022/08/22 01:35:22;;;;;;;17.85;5.22;;;17.40;99.90;;;18.02;98.93;99127.06;4926894;28;119288;-72
2022/08/22 01:38:15;;;;;;;;;;;17.30;99.90;;;17.93;99.72;99130.06;4913186;28;130139;-72
2022/08/22 01:41:39;;;;;;;15.48;4.97;;;17.30;99.90;;;17.94;99.68;99130.88;4897173;28;129394;-69
2022/08/22 01:44:53;;;;;;;18.75;5.25;;;17.20;99.90;;;17.93;99.69;99127.34;4919997;28;119398;-70
2022/08/22 01:47:29;;;;;;;17.95;5.78;;;17.20;99.90;;;17.92;99.80;99128.50;4884327;28;119457;-71
2022/08/22 01:50:11;;;;;;;16.25;5.07;;;17.20;99.90;;;17.87;100.00;99122.50;4882454;28;129585;-70
2022/08/22 01:52:46;;;;;;;14.93;5.40;;;17.20;99.90;;;17.85;100.00;99117.38;4906233;28;129268;-71
2022/08/22 01:55:27;;;;;;;20.92;5.78;;;17.20;99.90;;;17.81;100.00;99116.56;4919224;28;119688;-71
2022/08/22 01:57:59;;;;;;;20.10;4.85;;;17.10;99.90;;;17.79;100.00;99118.88;4904450;28;119529;-71
2022/08/22 02:00:51;;;;;;;13.60;5.63;;;17.10;99.90;;;17.74;100.00;99110.97;4919164;28;131066;-69
2022/08/22 02:03:28;;;;;;;12.55;5.07;;;17.10;99.90;;;17.74;100.00;99116.44;4903821;28;129566;-69
2022/08/22 02:06:08;;;;;;;18.77;5.32;;;17.10;99.90;;;17.67;100.00;99111.66;4998622;28;121961;-69
2022/08/22 02:08:46;;;;;;;19.80;5.65;;;17.00;99.90;;;17.61;100.00;99113.91;5020554;28;122105;-70
2022/08/22 02:11:47;;;;;;;18.77;5.35;;;17.00;99.90;;;17.57;100.00;99121.28;5020986;28;130143;-70
2022/08/22 02:14:40;;;;;;;17.05;5.07;;;17.00;99.90;;;17.56;100.00;99122.44;5020577;28;129454;-71
2022/08/22 02:17:21;;;;;;;15.95;5.10;;;17.00;99.90;;;17.52;100.00;99124.34;5006008;28;119652;-70
2022/08/22 02:19:58;;;;;;;17.17;5.82;;;17.00;99.90;;;17.56;100.00;99127.94;5021017;28;119786;-72
2022/08/22 02:22:38;;;;;;;18.55;6.00;;;17.00;99.90;;;17.51;100.00;99130.97;5020751;28;130116;-71
2022/08/22 02:25:15;;;;;;;16.30;5.07;;;17.00;99.90;;;17.47;100.00;99119.16;5021568;28;129300;-70
2022/08/22 02:27:57;;;;;;;15.10;5.40;;;16.90;99.90;;;17.42;100.00;99116.72;5012898;28;119710;-70
2022/08/22 02:30:45;;;;;;;16.95;5.78;;;16.80;99.90;;;17.43;100.00;99119.09;5020982;28;120119;-71
2022/08/22 02:33:25;;;;;;;18.25;5.57;;;16.80;99.90;;;17.38;100.00;99121.38;5004332;28;128856;-70
2022/08/22 02:35:59;;;;;;;20.73;6.13;;;16.80;99.90;;;17.34;100.00;99126.00;5025292;27;129562;-70
2022/08/22 02:38:38;;;;;;;13.85;5.53;;;16.70;99.90;;;17.30;100.00;99128.69;5040382;27;119934;-72
2022/08/22 02:41:14;;;;;;;20.58;5.78;;;16.60;99.90;;;17.20;100.00;99135.56;5026038;27;119229;-70
2022/08/22 02:43:52;;;;;;;14.07;5.40;;;16.50;99.90;;;17.14;100.00;99142.50;5040970;27;130547;-71
2022/08/22 02:46:29;;;;;;;20.33;5.55;;;16.50;99.90;;;17.11;100.00;99139.69;5040118;27;130401;-70
2022/08/22 02:49:09;;;;;;;16.92;5.75;;;16.50;99.90;;;17.04;100.00;99145.84;5050716;27;120106;-70
2022/08/22 02:51:55;;;;;;;19.42;6.10;;;16.50;99.90;;;17.06;100.00;99151.75;5061203;27;119559;-69
2022/08/22 02:54:35;;;;;;;20.48;5.60;;;16.50;99.90;;;17.03;100.00;99160.69;5045794;27;129490;-70
2022/08/22 02:57:10;;;;;;;17.25;5.97;;;16.50;99.90;;;16.93;100.00;99155.81;5060367;27;130398;-71
2022/08/22 03:00:07;;;;;;;20.25;5.72;;;16.40;99.90;;;16.94;100.00;99157.38;5059216;27;123367;-70
2022/08/22 03:02:38;;;;;;;21.05;6.38;;;16.40;99.90;;;16.97;100.00;99156.66;5063998;27;123326;-70
2022/08/22 03:05:26;;;;;;;20.80;6.30;;;16.40;99.90;;;16.98;100.00;99159.03;5044777;27;129270;-71
2022/08/22 03:08:08;;;;;;;22.85;6.85;;;16.40;99.90;;;16.96;100.00;99160.56;5059866;27;129719;-70
2022/08/22 03:10:45;;;;;;;15.32;5.43;;;16.40;99.90;;;16.96;100.00;99168.78;5060879;27;120368;-71
2022/08/22 03:13:25;;;;;;;18.80;5.22;;;16.40;99.90;;;16.99;100.00;99168.84;5045535;27;119189;-69
2022/08/22 03:15:59;;;;;;;15.98;5.55;;;16.40;99.90;;;17.05;100.00;99174.84;5041683;27;130083;-73
2022/08/22 03:18:45;;;;;;;21.40;6.75;;;16.40;99.90;;;17.12;100.00;99174.97;5060010;27;130083;-69
2022/08/22 03:21:24;;;;;;;20.77;5.85;;;16.50;99.90;;;17.12;100.00;99171.44;5060868;27;119580;-70
2022/08/22 03:24:01;;;;;;;21.20;6.28;;;16.50;99.90;;;17.03;100.00;99166.16;5061029;27;119351;-67
2022/08/22 03:26:44;;;;;;;20.63;5.45;;;16.50;99.90;;;16.96;100.00;99152.34;5043835;27;129883;-71
2022/08/22 03:29:20;;;;;;;19.35;6.13;;;16.50;99.90;;;17.00;100.00;99167.72;5059538;27;129390;-71
2022/08/22 03:32:13;;;;;;;23.88;5.40;;;16.50;99.90;;;17.15;100.00;99174.22;5060876;27;119575;-72
2022/08/22 03:34:57;;;;;;;16.70;5.53;;;16.60;99.90;;;17.37;100.00;99174.63;5045232;27;119648;-71
2022/08/22 03:37:39;;;;;;;16.42;5.30;;;16.70;99.90;;;17.55;100.00;99188.66;5041456;27;130612;-71
2022/08/22 03:40:27;;;;;;;17.30;5.45;;;16.80;99.90;;;17.55;100.00;99180.44;5038158;27;129375;-70
2022/08/22 03:43:28;;;;;;;22.08;5.88;;;16.90;99.90;;;17.57;100.00;99178.88;5039990;27;119607;-73
2022/08/22 03:46:38;;;;;;;17.75;5.72;;;16.90;99.90;;;17.61;100.00;99187.19;5041940;27;119304;-68
2022/08/22 03:50:14;;;;;;;13.65;5.30;;;16.90;99.90;;;17.85;100.00;99188.75;5055139;27;129753;-71
2022/08/22 03:53:22;;;;;;;12.77;5.97;;;17.10;99.90;;;17.89;100.00;99195.13;5059590;27;129484;-69
2022/08/22 03:56:44;;;;;;;16.23;5.63;;;17.10;99.90;;;17.87;100.00;99191.94;5058453;27;123453;-69
2022/08/22 03:59:58;;;;;;;19.40;5.63;;;17.10;99.90;;;18.06;100.00;99209.47;5059563;27;122222;-70
2022/08/22 04:03:07;;;;;;;22.98;5.78;;;17.20;99.90;;;18.28;98.59;99211.41;5059170;27;130335;-72
2022/08/22 04:06:22;;;;;;;16.33;5.22;;;17.40;99.90;;;18.52;96.13;99219.59;5059537;27;129376;-70
2022/08/22 04:09:27;;;;;;;20.15;5.78;;;17.50;99.90;;;18.57;94.85;99220.03;5058334;27;119739;-68
2022/08/22 04:12:42;;;;;;;17.83;5.53;;;17.50;99.90;;;18.58;94.78;99229.88;5059893;27;119979;-70
2022/08/22 04:15:44;;;;;;;19.60;5.38;;;17.60;99.90;;;18.65;94.34;99229.97;5040658;27;130669;-72
2022/08/22 04:18:37;;;;;;;17.90;5.25;;;17.60;99.90;;;18.85;93.00;99233.41;5008396;27;129172;-69
2022/08/22 04:21:49;;;;;;;13.52;5.10;;;17.80;99.90;;;18.94;91.99;99235.06;5039149;27;119625;-69
2022/08/22 04:24:52;;;;;;;26.35;5.72;;;17.90;99.90;;;19.16;90.57;99241.59;5035136;27;119449;-70
2022/08/22 04:27:29;;;;;;;19.42;5.32;;;18.00;99.90;;;19.21;90.11;99233.81;5022150;27;130333;-69
2022/08/22 04:30:07;;;;;;;16.92;5.43;;;18.10;99.90;;;19.60;88.63;99235.38;5042418;27;129352;-69
2022/08/22 04:32:44;;;;;;;16.13;5.10;;;18.40;93.30;;;19.63;86.96;99245.63;5042788;27;119674;-68
2022/08/22 04:35:19;;;;;;;15.90;5.00;;;18.30;93.20;;;19.83;86.50;99235.22;5042067;27;119018;-70
2022/08/22 04:37:53;;;;;;;18.25;5.40;;;18.50;93.30;;;19.97;84.69;99231.78;5004121;28;130064;-71
2022/08/22 04:40:27;;;;;;;16.27;5.38;;;18.60;71.00;;;20.00;84.92;99228.28;5022238;28;129564;-72
2022/08/22 04:43:05;;;;;;;20.33;5.13;;;18.60;81.60;;;20.06;84.41;99226.75;5036582;27;120507;-70
2022/08/22 04:45:39;;;;;;;16.98;5.10;;;18.60;75.20;;;20.15;83.15;99234.69;5040936;27;119287;-70
2022/08/22 04:48:15;;;;;;;16.67;5.10;;;18.80;60.90;;;20.17;82.84;99237.06;5004159;28;129718;-70
2022/08/22 04:50:53;;;;;;;18.75;5.40;;;18.80;52.00;;;20.36;81.42;99239.53;5024630;28;129515;-73
2022/08/22 04:53:39;;;;;;;18.70;5.38;;;19.00;36.40;;;20.34;81.64;99247.41;5003644;28;122451;-72
2022/08/22 04:56:18;;;;;;;18.58;5.07;;;19.00;36.40;;;20.24;81.56;99256.38;5022755;28;122503;-70
2022/08/22 04:58:51;;;;;;;15.98;4.85;;;18.90;36.30;;;20.08;82.00;99257.44;5019957;27;130538;-70
2022/08/22 05:01:24;;;;;;;18.15;5.18;;;18.80;36.20;;;20.24;80.85;99257.19;5019627;27;129012;-72
2022/08/22 05:04:00;;;;;;;18.77;5.28;;;18.90;29.00;;;20.29;82.04;99250.53;5040972;27;119678;-75
2022/08/22 05:06:32;;;;;;;19.17;4.90;;;19.00;36.40;;;20.38;80.16;99259.25;5042018;27;119392;-71
2022/08/22 05:09:08;;;;;;;15.10;5.07;;;19.10;21.60;;;20.63;79.71;99259.41;5038904;27;129810;-70
2022/08/22 05:11:38;;;;;;;17.70;5.82;;;19.20;17.00;;;20.95;77.92;99255.25;5034451;27;130541;-73
2022/08/22 05:14:16;;;;;;;16.30;5.00;;;19.40;13.00;;;21.20;77.08;99252.59;5041388;27;119653;-70
2022/08/22 05:16:50;;;;;;;20.90;5.15;;;19.60;9.80;;;21.48;76.22;99249.09;5041801;27;119439;-74
2022/08/22 05:19:27;;;;;;;22.58;5.43;;;19.80;4.70;;;21.83;74.53;99260.63;5040039;27;129785;-70
2022/08/22 05:21:57;;;;;;;19.48;5.93;;;20.10;1.00;;;21.79;72.62;99255.09;5034442;27;129504;-70
2022/08/22 05:24:32;;;;;;;18.65;5.55;;;20.00;1.00;;;21.47;73.49;99252.25;5022583;28;119493;-70
2022/08/22 05:27:10;;;;;;;20.90;5.25;;;19.70;1.00;;;21.64;73.68;99247.97;5021287;28;119718;-70
2022/08/22 05:29:43;;;;;;;19.25;5.32;;;19.90;1.00;;;21.83;72.48;99253.13;5017331;28;129504;-69
2022/08/22 05:32:19;;;;;;;16.98;4.57;;;20.00;1.00;;;22.13;71.79;99248.38;5020630;28;130086;-69
2022/08/22 05:34:52;;;;;;;17.45;4.97;;;20.30;1.00;;;22.13;70.82;99249.19;5021229;27;119739;-71
2022/08/22 05:37:26;;;;;;;17.95;4.72;;;20.30;1.00;;;22.60;70.39;99247.16;5007192;28;119651;-70
2022/08/22 05:40:00;;;;;;;20.00;6.63;;;20.70;1.00;;;23.11;68.24;99252.56;5022009;28;129847;-72
2022/08/22 05:42:32;;;;;;;16.08;5.53;;;21.00;1.00;;;23.07;67.54;99251.75;5021615;28;130114;-70
2022/08/22 05:45:04;;;;;;;14.82;5.20;;;21.00;1.00;;;22.96;68.31;99252.56;5021326;28;122769;-74
2022/08/22 05:47:39;;;;;;;17.48;5.50;;;21.00;1.00;;;23.19;67.70;99258.81;5022266;28;121676;-71
2022/08/22 05:50:17;;;;;;;26.03;7.03;;;21.10;1.00;;;23.41;66.95;99265.06;5023480;28;130477;-72
2022/08/22 05:53:04;;;;;;;18.65;5.07;;;21.30;1.00;;;23.04;67.26;99267.16;5020185;28;129873;-71
2022/08/22 05:55:48;;;;;;;17.88;5.63;;;21.00;1.00;;;23.01;67.81;99262.44;5021897;28;120194;-74
2022/08/22 05:58:48;;;;;;;16.58;5.30;;;21.20;1.00;;;23.35;67.63;99266.66;5021951;28;119502;-70
2022/08/22 06:01:34;;;;;;;21.38;5.22;;;21.40;1.00;;;23.15;66.22;99259.66;5021489;28;130013;-70
2022/08/22 06:04:12;;;;;;;19.45;4.97;;;21.20;1.00;;;23.08;67.08;99275.47;5003882;28;129552;-70
2022/08/22 06:06:52;;;;;;;21.50;5.65;;;21.30;1.00;;;22.69;68.77;99254.25;5021615;28;119716;-70
2022/08/22 06:09:30;;;;;;;18.80;4.80;;;20.90;1.00;;;22.46;69.24;99258.25;5021780;28;119810;-72
2022/08/22 06:12:04;;;;;;;23.73;5.07;;;20.60;1.00;;;22.31;69.84;99262.22;5020019;28;129785;-70
2022/08/22 06:14:44;;;;;;;16.35;5.13;;;20.60;1.00;;;21.86;72.18;99265.34;5021307;28;129415;-72
2022/08/22 06:17:16;;;;;;;21.23;4.88;;;20.30;1.00;;;21.88;72.43;99263.78;5021450;28;119215;-72
2022/08/22 06:19:49;;;;;;;21.13;4.95;;;20.40;1.00;;;22.36;70.81;99272.88;5006604;28;118150;-70
2022/08/22 06:22:24;;;;;;;17.17;5.22;;;20.80;1.00;;;22.51;69.78;99270.88;5020949;28;129906;-71
2022/08/22 06:24:59;;;;;;;20.67;5.37;;;20.90;1.00;;;22.68;69.09;99270.06;5021280;28;129938;-70
2022/08/22 06:27:29;;;;;;;20.38;5.85;;;21.00;1.00;;;22.68;69.32;99263.75;5023414;28;119611;-71
2022/08/22 06:30:01;;;;;;;19.63;5.15;;;21.10;1.00;;;22.94;67.85;99265.25;5021791;28;119809;-73
2022/08/22 06:32:40;;;;;;;20.08;4.35;;;21.30;1.00;;;23.11;66.31;99269.16;5020967;28;130889;-71
2022/08/22 06:35:18;;;;;;;21.65;5.00;;;21.40;1.00;;;23.28;65.86;99262.75;5020730;28;130086;-70
2022/08/22 06:37:50;;;;;;;20.00;5.05;;;21.60;1.00;;;23.36;66.01;99263.50;5020095;28;121924;-70
2022/08/22 06:40:20;;;;;;;26.08;6.40;;;21.70;1.00;;;23.72;66.24;99256.91;5006275;28;121531;-70
2022/08/22 06:42:53;;;;;;;20.80;4.95;;;22.00;1.00;;;23.72;63.89;99262.47;5022960;28;129731;-71
2022/08/22 06:45:28;;;;;;;19.35;5.72;;;21.90;1.00;;;23.66;64.32;99264.88;5002911;28;129524;-71
2022/08/22 06:48:17;;;;;;;24.75;5.95;;;21.90;1.00;;;23.77;64.74;99253.75;5020722;28;119714;-71
2022/08/22 06:50:52;;;;;;;20.75;4.63;;;22.00;1.00;;;24.16;63.07;99274.84;5024179;28;119425;-73
2022/08/22 06:53:29;;;;;;;19.97;5.40;;;22.20;1.00;;;24.22;61.79;99267.66;5020824;28;129694;-71
2022/08/22 06:56:01;;;;;;;14.80;4.72;;;22.30;1.00;;;24.33;60.89;99267.56;5021196;28;129931;-71
2022/08/22 06:58:35;;;;;;;19.98;4.35;;;22.30;1.00;;;24.13;61.01;99267.34;5021034;28;119516;-71
2022/08/22 07:01:09;;;;;;;15.93;4.45;;;22.20;1.00;;;24.26;61.31;99268.38;5023269;28;118284;-73
2022/08/22 07:03:41;;;;;;;18.50;4.50;;;22.40;1.00;;;24.16;60.63;99267.28;5019528;28;129794;-72
2022/08/22 07:06:15;;;;;;;19.00;4.40;;;22.40;1.00;;;24.07;60.96;99266.19;5020531;28;129565;-72
2022/08/22 07:08:52;;;;;;;20.95;5.10;;;22.40;1.00;;;23.80;61.56;99264.00;5006074;28;119374;-71
2022/08/22 07:11:27;;;;;;;21.30;4.78;;;22.20;1.00;;;23.48;62.54;99260.25;5020931;28;119529;-69
2022/08/22 07:14:01;;;;;;;23.67;5.38;;;22.00;1.00;;;23.62;62.26;99261.34;5022446;28;129389;-69
2022/08/22 07:16:39;;;;;;;20.00;4.82;;;22.10;1.00;;;23.78;62.66;99260.84;5020320;28;129369;-70
2022/08/22 07:19:10;;;;;;;18.00;4.63;;;22.50;1.00;;;24.22;60.83;99256.56;5020761;28;119540;-71
2022/08/22 07:21:47;;;;;;;17.67;5.13;;;22.80;1.00;;;23.77;60.77;99259.28;5013396;28;119918;-70
2022/08/22 07:24:22;;;;;;;22.23;4.63;;;22.50;1.00;;;24.09;59.82;99261.03;5020351;28;129578;-71
2022/08/22 07:27:07;;;;;;;20.20;4.20;;;22.90;1.00;;;24.09;59.70;99261.03;5020454;28;129537;-70
2022/08/22 07:29:47;;;;;;;17.20;4.30;;;22.90;1.00;;;24.02;60.20;99246.03;5019480;28;122182;-70
2022/08/22 07:32:21;;;;;;;21.02;4.95;;;22.70;1.00;;;24.23;58.87;99253.38;5020830;28;121466;-71
2022/08/22 07:35:11;;;;;;;19.85;4.82;;;22.90;1.00;;;24.61;59.54;99257.41;5019813;28;129809;-73
2022/08/22 07:37:53;;;;;;;25.50;4.63;;;23.30;1.00;;;25.01;58.68;99255.75;5019899;28;129581;-72
2022/08/22 07:40:31;;;;;;;22.73;4.97;;;23.60;1.00;;;25.01;57.32;99254.94;5020025;28;120276;-72
2022/08/22 07:43:12;;;;;;;18.08;4.90;;;23.50;1.00;;;24.72;58.47;99250.53;5020525;28;119376;-71
2022/08/22 07:45:49;;;;;;;22.05;4.82;;;23.30;1.00;;;24.94;57.66;99253.03;5019728;28;129920;-74
2022/08/22 07:48:26;;;;;;;22.50;5.60;;;23.40;1.00;;;24.65;58.25;99245.06;5020392;28;129954;-70
2022/08/22 07:51:07;;;;;;;31.05;5.28;;;23.30;1.00;;;24.68;58.56;99252.56;5022926;28;119652;-71
2022/08/22 07:53:42;;;;;;;21.48;5.03;;;23.40;1.00;;;24.47;60.30;99250.00;5020860;28;119695;-72
2022/08/22 07:56:16;;;;;;;19.17;4.32;;;23.20;1.00;;;25.05;59.40;99253.69;5019096;28;130217;-70
2022/08/22 07:58:50;;;;;;;18.95;5.10;;;23.60;1.00;;;25.31;57.47;99251.41;5019377;27;129899;-72
2022/08/22 08:01:22;;;;;;;20.52;5.72;;;23.70;1.00;;;25.53;57.67;99248.34;5020342;28;119547;-71
2022/08/22 08:03:56;;;;;;;24.58;5.10;;;23.90;1.00;;;24.84;57.96;99243.66;5018713;28;119437;-71
2022/08/22 08:06:27;;;;;;;21.65;4.72;;;23.30;1.00;;;25.21;58.92;99246.75;5019421;28;129544;-70
2022/08/22 08:08:57;;;;;;;20.10;5.72;;;23.70;1.00;;;25.50;57.11;99246.41;5019568;28;129822;-71
2022/08/22 08:11:32;;;;;;;18.85;5.03;;;23.90;1.00;;;25.31;57.98;99245.88;5019965;28;119738;-69
2022/08/22 08:14:05;;;;;;;22.77;5.03;;;23.90;1.00;;;24.63;59.24;99241.91;5005383;28;118390;-72
2022/08/22 08:16:43;;;;;;;20.73;5.18;;;23.30;1.00;;;24.77;58.99;99238.19;5018928;28;129849;-73
2022/08/22 08:19:15;;;;;;;20.48;5.45;;;23.50;1.00;;;24.89;59.03;99232.09;5019485;28;129704;-73
2022/08/22 08:21:52;;;;;;;17.65;4.85;;;23.70;1.00;;;25.08;58.42;99233.44;5003774;28;121250;-71
2022/08/22 08:24:25;;;;;;;21.05;5.75;;;23.80;1.00;;;25.08;58.53;99233.44;5019639;28;121729;-70
2022/08/22 08:29:55;;;;;;;21.23;5.45;;;24.10;1.00;;;25.25;58.11;99230.84;5019321;28;129549;-69
2022/08/22 08:32:26;;;;;;;26.58;5.68;;;24.00;1.00;;;25.61;57.76;99230.34;5004872;28;118425;-71
2022/08/22 08:38:23;;;;;;;19.42;4.93;;;24.60;1.00;;;26.16;56.26;99226.28;5019304;28;130519;-74
2022/08/22 08:41:48;;;;;;;26.25;5.07;;;24.60;1.00;;;25.24;57.55;99232.84;5019486;28;129552;-70
2022/08/22 08:44:44;;;;;;;20.88;5.03;;;23.80;1.00;;;25.45;57.47;99229.00;5019235;28;119822;-74
2022/08/22 08:47:37;;;;;;;21.83;4.47;;;24.20;1.00;;;25.45;56.12;99233.75;5019622;28;119464;-74
2022/08/22 08:50:42;;;;;;;22.85;6.15;;;24.00;1.00;;;25.79;56.42;99233.63;5019105;28;130331;-73
2022/08/22 08:54:04;;;;;;;20.75;4.93;;;24.40;1.00;;;25.79;55.71;99233.63;5004190;28;129114;-72
2022/08/22 08:56:40;;;;;;;21.90;4.95;;;24.40;1.00;;;25.68;56.65;99235.81;5019768;28;120048;-73
2022/08/22 08:59:26;;;;;;;15.63;5.53;;;24.30;1.00;;;26.22;55.52;99231.38;5019461;28;119457;-71
2022/08/22 09:02:33;;;;;;;22.20;4.70;;;24.80;1.00;;;26.79;54.98;99221.94;5000535;27;130600;-71
2022/08/22 09:05:37;;;;;;;;;;;25.20;1.00;;;26.72;53.55;99227.66;5039666;27;129679;-71
2022/08/22 09:08:57;;;;;;;22.05;5.03;;;25.10;1.00;;;27.13;52.85;99228.41;5024368;27;119231;-72
2022/08/22 09:12:06;;;;;;;20.17;5.00;;;25.30;1.00;;;27.14;50.99;99219.63;5012484;27;119657;-73
2022/08/22 09:15:25;;;;;;;17.48;4.30;;;25.50;1.00;;;27.28;51.88;99218.50;5042558;27;129933;-71
2022/08/22 09:18:36;;;;;;;18.38;5.00;;;25.40;1.00;;;27.03;51.15;99227.41;5019594;27;128436;-69
2022/08/22 09:21:46;;;;;;;23.02;5.15;;;25.50;1.00;;;26.65;52.91;99223.03;5020922;27;121796;-72
2022/08/22 09:25:16;;;;;;;24.27;5.07;;;25.00;1.00;;;27.12;52.19;99213.69;5044472;27;121881;-72
2022/08/22 09:27:56;;;;;;;21.75;5.20;;;25.30;1.00;;;26.53;53.04;99216.06;5046736;27;128831;-73
2022/08/22 09:30:44;;;;;;;21.20;5.72;;;25.00;1.00;;;26.81;53.62;99213.94;5047468;27;129029;-70
2022/08/22 09:33:17;;;;;;;14.90;4.65;;;25.20;1.00;;;27.18;52.72;99216.78;5062293;27;119712;-72
2022/08/22 09:35:57;;;;;;;24.50;5.80;;;25.50;1.00;;;27.35;50.84;99221.19;5063060;27;119056;-73
2022/08/22 09:38:42;;;;;;;19.15;4.40;;;25.70;1.00;;;27.21;50.84;99222.25;5062528;27;129942;-69
2022/08/22 09:41:35;;;;;;;20.85;5.13;;;25.60;1.00;;;27.00;51.14;99225.50;5063064;27;129678;-72
2022/08/22 09:44:19;;;;;;;19.95;5.18;;;25.60;1.00;;;26.50;52.63;99222.47;5062987;27;120389;-76
2022/08/22 09:47:01;;;;;;;19.38;5.15;;;25.00;1.00;;;26.41;52.75;99225.03;5044388;27;119971;-71
2022/08/22 09:49:47;;;;;;;23.08;4.93;;;25.00;1.00;;;26.65;53.08;99227.78;5045215;27;129765;-72
2022/08/22 09:52:32;;;;;;;16.35;4.78;;;25.30;1.00;;;27.13;51.87;99218.06;5041572;27;129688;-74
2022/08/22 09:55:09;;;;;;;21.58;5.72;;;25.70;1.00;;;27.16;51.17;99222.78;5027241;27;118995;-71
2022/08/22 09:57:48;;;;;;;22.45;5.18;;;25.70;1.00;;;27.23;50.92;99217.03;5042442;27;119735;-75
2022/08/22 10:00:53;;;;;;;23.27;5.28;;;25.60;1.00;;;26.93;51.93;99214.50;5041609;27;129976;-71
2022/08/22 10:03:47;;;;;;;17.73;4.45;;;25.50;1.00;;;27.22;51.21;99214.66;5041866;27;129250;-73
2022/08/22 10:06:21;;;;;;;23.10;5.38;;;25.60;1.00;;;26.77;52.63;99210.47;5042413;27;119785;-72
2022/08/22 10:09:00;;;;;;;18.95;4.97;;;25.30;1.00;;;26.89;52.43;99215.34;5044604;27;119544;-74
2022/08/22 10:11:34;;;;;;;22.77;5.35;;;25.40;1.00;;;26.74;52.41;99214.13;5041759;27;129954;-70
2022/08/22 10:14:09;;;;;;;24.02;5.20;;;25.20;1.00;;;26.78;52.22;99214.81;5041440;27;129957;-72
2022/08/22 10:16:59;;;;;;;17.55;4.78;;;25.20;1.00;;;27.22;52.58;99200.75;5040701;27;122997;-73
2022/08/22 10:19:35;;;;;;;22.77;5.22;;;25.70;1.00;;;27.43;51.49;99203.06;5041621;27;121703;-74
2022/08/22 10:22:39;;;;;;;19.98;4.47;;;25.90;1.00;;;27.71;51.20;99205.63;5039942;27;130089;-75
2022/08/22 10:25:30;;;;;;;19.45;4.93;;;26.30;1.00;;;28.28;49.67;99212.56;5040066;27;129342;-73
2022/08/22 10:28:16;;;;;;;22.13;4.70;;;26.60;1.00;;;28.00;50.21;99204.91;5041918;27;120490;-73
2022/08/22 10:31:09;;;;;;;19.98;4.95;;;26.40;1.00;;;28.28;50.87;99204.19;5028963;27;118285;-72
2022/08/22 10:33:46;;;;;;;22.48;5.07;;;26.60;1.00;;;28.77;49.71;99205.25;5026593;27;129856;-71
2022/08/22 10:36:27;;;;;;;21.10;5.95;;;26.90;1.00;;;28.79;48.26;99211.19;5041573;27;129354;-73
2022/08/22 10:38:58;;;;;;;18.95;5.20;;;27.00;1.00;;;29.19;48.54;99208.00;5041447;27;119085;-76
2022/08/22 10:41:36;;;;;;;20.52;4.93;;;27.40;1.00;;;29.45;47.08;99211.63;5026258;27;118426;-77
2022/08/22 10:44:17;;;;;;;26.00;5.18;;;27.50;1.00;;;28.97;48.07;99217.03;5008095;27;129532;-75
2022/08/22 10:46:54;;;;;;;18.52;5.00;;;27.20;1.00;;;29.19;47.59;99219.19;5041235;27;129846;-74
2022/08/22 10:49:31;;;;;;;21.73;5.45;;;27.30;1.00;;;28.81;47.63;99203.13;5025704;27;120818;-73
2022/08/22 10:52:08;;;;;;;18.13;4.38;;;26.80;1.00;;;29.05;48.54;99209.22;5041525;27;119842;-71
2022/08/22 10:54:48;;;;;;;18.80;5.35;;;27.00;1.00;;;29.47;47.56;99206.34;5040813;27;130542;-71
2022/08/22 10:57:40;;;;;;;27.20;5.25;;;27.50;1.00;;;29.61;47.01;99207.09;5040514;27;129935;-73
2022/08/22 11:00:19;;;;;;;24.38;5.22;;;27.60;1.00;;;29.78;45.24;99200.16;5041033;27;119909;-75
2022/08/22 11:03:00;;;;;;;24.10;6.70;;;27.90;1.00;;;30.00;45.83;99199.47;5035143;27;120260;-70
2022/08/22 11:05:40;;;;;;;24.65;4.85;;;28.00;1.00;;;30.14;45.37;99201.78;5044176;27;130195;-73
2022/08/22 11:08:28;;;;;;;27.08;5.72;;;27.90;1.00;;;30.33;45.21;99194.31;5025341;27;130639;-73
2022/08/22 11:11:17;;;;;;;23.75;4.82;;;28.10;1.00;;;30.30;43.74;99198.78;5004022;28;120448;-74
2022/08/22 11:14:16;;;;;;;20.58;5.05;;;28.00;1.00;;;28.91;46.66;99199.25;5005762;28;120922;-74
2022/08/22 11:16:58;;;;;;;20.88;5.35;;;27.30;1.00;;;28.67;48.06;99193.16;5019939;28;130219;-75
2022/08/22 11:19:52;;;;;;;20.75;4.70;;;27.00;1.00;;;28.93;47.02;99201.59;5001839;28;130114;-72
2022/08/22 11:22:32;;;;;;;22.42;4.68;;;27.30;1.00;;;29.00;46.72;99206.97;5020441;28;119612;-72
2022/08/22 11:25:39;;;;;;;19.50;4.90;;;27.50;1.00;;;29.76;45.42;99189.44;5019261;28;120181;-73
2022/08/22 11:28:33;;;;;;;23.83;5.30;;;28.10;1.00;;;30.08;44.43;99193.16;5006183;28;129183;-69
2022/08/22 11:31:18;;;;;;;25.13;4.95;;;28.30;1.00;;;30.58;43.28;99189.84;5019970;28;129714;-70